Time;durP1;ratioP1;P1;durP2;ratioP2;P2;SDS_P1;SDS_P2;PMS_P1;PMS_P2;Temp;Humidity;BMP_temperature;BMP_pressure;BME280_temperature;BME280_humidity;BME280_pressure;Samples;Min_cycle;Max_cycle;Signal;HPM_P1;HPM_P2
2021/03/18 00:00:49;;;;;;;9.45;7.17;;;;;;;12.26;47.24;98924.95;1805702;78;21199;-64
2021/03/18 00:03:19;;;;;;;11.53;7.83;;;;;;;12.27;47.25;98927.95;1794643;79;21123;-65
2021/03/18 00:05:47;;;;;;;11.08;7.60;;;;;;;12.26;47.25;98925.47;1806561;78;21171;-65
2021/03/18 00:08:15;;;;;;;10.48;6.95;;;;;;;12.26;47.25;98924.14;1782386;80;21301;-64
2021/03/18 00:10:44;;;;;;;12.60;7.40;;;;;;;12.26;47.23;98918.81;1786083;79;21170;-64
2021/03/18 00:13:12;;;;;;;10.72;7.22;;;;;;;12.25;47.22;98925.99;1781228;80;22480;-64
2021/03/18 00:15:41;;;;;;;9.98;6.20;;;;;;;12.25;47.20;98923.33;1802249;78;21183;-64
2021/03/18 00:18:10;;;;;;;8.55;6.22;;;;;;;12.25;47.20;98926.52;1804363;78;21142;-65
2021/03/18 00:20:37;;;;;;;10.58;6.22;;;;;;;12.24;47.19;98928.33;1784488;78;21664;-64
2021/03/18 00:23:05;;;;;;;8.30;5.72;;;;;;;12.25;47.20;98926.52;1793838;78;21182;-62
2021/03/18 00:25:32;;;;;;;10.95;6.37;;;;;;;12.25;47.19;98922.52;1786426;79;22717;-64
2021/03/18 00:27:59;;;;;;;10.60;5.90;;;;;;;12.25;47.16;98919.34;1782610;79;21194;-64
2021/03/18 00:30:27;;;;;;;9.00;5.53;;;;;;;12.24;47.15;98923.00;1780752;78;21164;-63
2021/03/18 00:32:55;;;;;;;8.10;5.53;;;;;;;12.24;47.13;98913.69;1788988;79;21147;-63
2021/03/18 00:35:23;;;;;;;9.03;5.85;;;;;;;12.23;47.13;98915.20;1792905;79;21161;-63
2021/03/18 00:37:51;;;;;;;9.10;6.35;;;;;;;12.22;47.11;98915.72;1789188;79;21428;-64
2021/03/18 00:40:26;;;;;;;8.58;5.78;;;;;;;12.22;47.10;98919.72;1781098;79;21171;-62
2021/03/18 00:43:05;;;;;;;10.23;6.30;;;;;;;12.22;47.10;98916.25;1778002;80;21206;-63
2021/03/18 00:45:36;;;;;;;8.70;5.28;;;;;;;12.21;47.06;98914.10;1783733;80;21177;-63
2021/03/18 00:48:06;;;;;;;7.17;5.47;;;;;;;12.20;47.04;98916.44;1789291;79;21169;-63
2021/03/18 00:50:49;;;;;;;9.55;5.45;;;;;;;12.18;47.02;98912.64;1772869;80;21198;-63
2021/03/18 00:53:26;;;;;;;8.95;6.25;;;;;;;12.18;47.01;98910.49;1775205;79;21940;-64
2021/03/18 00:55:54;;;;;;;7.25;4.72;;;;;;;12.17;47.01;98909.67;1788714;79;21147;-63
2021/03/18 00:58:22;;;;;;;9.38;5.17;;;;;;;12.16;47.00;98915.20;1799345;79;21126;-63
2021/03/18 01:00:53;;;;;;;9.38;5.15;;;;;;;12.15;46.97;98909.58;1796814;78;21132;-63
2021/03/18 01:03:23;;;;;;;8.10;5.30;;;;;;;12.15;46.95;98912.23;1803879;78;21293;-63
2021/03/18 01:06:00;;;;;;;7.50;4.75;;;;;;;12.14;46.94;98914.05;1771165;79;21195;-63
2021/03/18 01:08:28;;;;;;;9.33;5.22;;;;;;;12.14;46.91;98910.58;1826205;77;21181;-63
2021/03/18 01:11:09;;;;;;;7.35;4.92;;;;;;;12.13;46.90;98911.09;1826579;77;21223;-64
2021/03/18 01:13:40;;;;;;;6.92;4.47;;;;;;;12.11;46.89;98909.14;1845783;77;21607;-64
2021/03/18 01:16:13;;;;;;;7.58;5.00;;;;;;;12.11;46.90;98911.81;1774735;80;22059;-63
2021/03/18 01:18:48;;;;;;;8.43;5.10;;;;;;;12.11;46.86;98912.30;1760164;80;21189;-63
2021/03/18 01:21:17;;;;;;;8.88;5.58;;;;;;;12.10;46.84;98907.48;1751844;80;21187;-64
2021/03/18 01:23:47;;;;;;;9.08;4.85;;;;;;;12.11;46.83;98910.97;1832226;77;21144;-63
2021/03/18 01:26:14;;;;;;;8.43;5.08;;;;;;;12.09;46.79;98902.36;1839386;77;21143;-64
2021/03/18 01:28:43;;;;;;;8.03;5.58;;;;;;;12.09;46.79;98905.86;1832031;77;21400;-63
2021/03/18 01:31:11;;;;;;;6.40;5.42;;;;;;;12.10;46.77;98910.67;1757195;80;21224;-64
2021/03/18 01:33:40;;;;;;;10.30;5.87;;;;;;;12.09;46.73;98903.20;1765234;80;21111;-63
2021/03/18 01:36:12;;;;;;;6.78;5.72;;;;;;;12.10;46.71;98912.00;1833279;77;21151;-64
2021/03/18 01:38:43;;;;;;;10.08;5.40;;;;;;;12.09;46.68;98904.53;1831749;77;21140;-64
2021/03/18 01:41:11;;;;;;;10.15;6.87;;;;;;;12.09;46.66;98905.02;1831040;77;21358;-64
2021/03/18 01:43:39;;;;;;;11.53;7.03;;;;;;;12.08;46.63;98906.05;1831612;77;21147;-64
2021/03/18 01:46:08;;;;;;;10.75;6.72;;;;;;;12.09;46.59;98905.02;1838470;77;21139;-63
2021/03/18 01:48:36;;;;;;;9.70;7.72;;;;;;;12.08;46.58;98908.72;1837074;77;21163;-65
2021/03/18 01:51:04;;;;;;;11.05;6.55;;;;;;;12.08;46.58;98902.06;1839075;77;21576;-63
2021/03/18 01:53:32;;;;;;;12.45;7.72;;;;;;;12.08;46.56;98907.39;1841975;77;21635;-64
2021/03/18 01:56:00;;;;;;;8.75;7.00;;;;;;;12.08;46.52;98900.21;1833670;77;21119;-63
2021/03/18 01:58:28;;;;;;;9.15;6.65;;;;;;;12.07;46.51;98893.27;1822423;77;21139;-64
2021/03/18 02:00:58;;;;;;;10.28;6.15;;;;;;;12.05;46.50;98901.92;1847780;77;21104;-63
2021/03/18 02:03:26;;;;;;;8.10;6.78;;;;;;;12.07;46.49;98900.41;1838820;77;21088;-65
2021/03/18 02:05:54;;;;;;;10.75;6.55;;;;;;;12.07;46.47;98905.73;1818787;77;21573;-63
2021/03/18 02:08:23;;;;;;;9.43;6.08;;;;;;;12.06;46.46;98906.77;1816613;77;21154;-64
2021/03/18 02:10:51;;;;;;;10.05;6.15;;;;;;;12.05;46.46;98905.92;1825477;77;21152;-64
2021/03/18 02:13:20;;;;;;;6.35;5.75;;;;;;;12.06;46.46;98906.77;1770514;80;21122;-64
2021/03/18 02:15:58;;;;;;;7.37;5.85;;;;;;;12.05;46.47;98905.11;1758985;80;21630;-64
2021/03/18 02:18:53;;;;;;;12.95;6.55;;;;;;;12.05;46.47;98901.11;1762638;79;21146;-64
2021/03/18 02:21:44;;;;;;;7.85;5.67;;;;;;;12.03;46.47;98902.64;1824971;77;21624;-63
2021/03/18 02:24:52;;;;;;;9.68;6.55;;;;;;;12.02;46.50;98911.66;1773181;79;21168;-63
2021/03/18 02:27:44;;;;;;;12.90;9.58;;;;;;;11.98;46.54;98910.41;1787691;79;21159;-63
2021/03/18 02:30:29;;;;;;;16.97;13.03;;;;;;;11.96;46.56;98913.27;1766926;79;21148;-64
2021/03/18 02:33:25;;;;;;;15.98;12.28;;;;;;;11.94;46.63;98908.66;1765660;79;21256;-64
2021/03/18 02:36:04;;;;;;;18.25;12.80;;;;;;;11.93;46.65;98912.83;1761536;80;21143;-64
2021/03/18 02:38:35;;;;;;;15.35;12.25;;;;;;;11.91;46.66;98913.02;1776028;80;21136;-64
2021/03/18 02:41:06;;;;;;;13.75;11.75;;;;;;;11.91;46.66;98913.55;1782098;80;22021;-63
2021/03/18 02:43:39;;;;;;;14.75;11.68;;;;;;;11.91;46.68;98913.02;1760793;80;21183;-63
2021/03/18 02:46:06;;;;;;;14.45;11.35;;;;;;;11.91;46.68;98914.36;1773342;80;21516;-63
2021/03/18 02:48:37;;;;;;;15.48;10.93;;;;;;;11.90;46.69;98914.06;1773797;80;21183;-63
2021/03/18 02:51:06;;;;;;;11.97;9.40;;;;;;;11.92;46.69;98917.86;1759006;80;21148;-63
2021/03/18 02:53:33;;;;;;;14.15;9.85;;;;;;;11.93;46.65;98922.16;1746595;81;21159;-63
2021/03/18 02:56:02;;;;;;;14.00;9.55;;;;;;;11.91;46.66;98911.69;1773755;80;21132;-63
2021/03/18 02:58:34;;;;;;;9.45;8.00;;;;;;;11.92;46.66;98920.01;1757493;80;22113;-63
2021/03/18 03:01:03;;;;;;;9.50;7.78;;;;;;;11.91;46.66;98915.69;1793580;79;21172;-64
2021/03/18 03:03:33;;;;;;;11.33;8.03;;;;;;;11.91;46.67;98917.53;1785946;79;21620;-63
2021/03/18 03:06:02;;;;;;;8.95;7.20;;;;;;;11.91;46.67;98928.99;1771816;79;21143;-63
2021/03/18 03:08:29;;;;;;;12.82;7.65;;;;;;;11.91;46.67;98932.17;1833125;77;21120;-62
2021/03/18 03:11:00;;;;;;;11.35;7.42;;;;;;;11.90;46.66;98932.69;1834231;77;21194;-64
2021/03/18 03:13:30;;;;;;;9.68;6.85;;;;;;;11.91;46.66;98935.65;1831877;77;22166;-64
2021/03/18 03:16:00;;;;;;;10.55;6.62;;;;;;;11.91;46.66;98932.98;1834537;77;21115;-65
2021/03/18 03:18:27;;;;;;;7.42;6.55;;;;;;;11.91;46.64;98934.31;1843702;77;21126;-64
2021/03/18 03:20:55;;;;;;;10.68;6.15;;;;;;;11.91;46.63;98941.48;1827345;77;21183;-64
2021/03/18 03:23:24;;;;;;;8.70;6.40;;;;;;;11.90;46.66;98933.17;1820782;77;21413;-64
2021/03/18 03:25:51;;;;;;;10.82;7.65;;;;;;;11.90;46.68;98934.51;1819997;77;21568;-64
2021/03/18 03:28:19;;;;;;;10.40;7.55;;;;;;;11.91;46.68;98936.98;1831744;77;21114;-64
2021/03/18 03:30:47;;;;;;;12.30;9.18;;;;;;;11.90;46.69;98938.02;1764277;79;21624;-64
2021/03/18 03:33:14;;;;;;;10.93;7.92;;;;;;;11.89;46.71;98944.34;1775838;79;21622;-64
2021/03/18 03:35:43;;;;;;;11.08;7.90;;;;;;;11.89;46.72;98945.67;1834015;77;21334;-65
2021/03/18 03:38:12;;;;;;;9.43;6.70;;;;;;;11.89;46.71;98945.67;1843775;77;21205;-63
2021/03/18 03:40:39;;;;;;;10.58;7.53;;;;;;;11.89;46.74;98947.00;1817986;77;21135;-63
2021/03/18 03:43:07;;;;;;;10.08;6.28;;;;;;;11.89;46.78;98952.33;1845870;77;21168;-63
2021/03/18 03:45:34;;;;;;;9.38;7.37;;;;;;;11.89;46.79;98952.33;1829476;77;21232;-63
2021/03/18 03:48:03;;;;;;;10.35;6.40;;;;;;;11.89;46.83;98952.33;1842902;77;21477;-63
2021/03/18 03:50:31;;;;;;;10.50;7.35;;;;;;;11.88;46.84;98950.67;1850886;77;21229;-64
2021/03/18 03:53:22;;;;;;;8.28;5.85;;;;;;;11.87;46.86;98950.34;1827522;77;21183;-63
2021/03/18 03:56:10;;;;;;;11.10;7.75;;;;;;;11.81;46.88;98941.81;1837003;77;21095;-64
2021/03/18 03:59:01;;;;;;;11.35;8.23;;;;;;;11.85;46.92;98961.69;1840513;77;21163;-64
2021/03/18 04:01:38;;;;;;;8.30;6.67;;;;;;;11.83;46.98;98967.72;1834693;77;22243;-64
2021/03/18 04:04:15;;;;;;;13.70;7.67;;;;;;;11.81;47.04;98960.44;1827119;77;21190;-63
2021/03/18 04:06:44;;;;;;;9.50;7.28;;;;;;;11.79;47.11;98961.95;1784410;79;21195;-63
2021/03/18 04:09:14;;;;;;;8.43;6.65;;;;;;;11.78;47.14;98966.14;1757660;81;21152;-62
2021/03/18 04:11:44;;;;;;;9.37;7.10;;;;;;;11.78;47.18;98964.32;1832030;77;21152;-63
2021/03/18 04:14:13;;;;;;;8.60;6.60;;;;;;;11.78;47.21;98969.64;1822560;77;21600;-64
2021/03/18 04:16:44;;;;;;;8.10;5.90;;;;;;;11.78;47.22;98972.30;1795001;79;21183;-64
2021/03/18 04:19:17;;;;;;;10.20;6.33;;;;;;;11.78;47.26;98970.97;1751163;80;21134;-63
2021/03/18 04:21:48;;;;;;;8.78;6.90;;;;;;;11.78;47.27;98977.63;1792895;78;21159;-63
2021/03/18 04:24:15;;;;;;;10.80;5.75;;;;;;;11.77;47.30;98978.63;1773321;80;21128;-63
2021/03/18 04:26:43;;;;;;;7.83;6.00;;;;;;;11.78;47.32;98975.45;1761646;80;22391;-62
2021/03/18 04:29:10;;;;;;;10.58;6.62;;;;;;;11.77;47.35;98977.30;1780219;80;21140;-63
2021/03/18 04:31:39;;;;;;;8.25;5.85;;;;;;;11.77;47.36;98975.16;1772599;80;21166;-62
2021/03/18 04:34:08;;;;;;;9.45;5.62;;;;;;;11.77;47.36;98970.65;1752493;80;21156;-62
2021/03/18 04:36:36;;;;;;;6.90;5.30;;;;;;;11.77;47.39;98972.49;1734152;81;21566;-62
2021/03/18 04:39:06;;;;;;;6.65;5.40;;;;;;;11.77;47.42;98975.16;1756037;80;21216;-63
2021/03/18 04:41:33;;;;;;;7.92;6.12;;;;;;;11.78;47.47;98980.77;1755999;80;21587;-64
2021/03/18 04:44:01;;;;;;;6.55;5.58;;;;;;;11.78;47.50;98991.42;1757415;80;21108;-64
2021/03/18 04:46:29;;;;;;;8.48;6.08;;;;;;;11.77;47.55;98989.27;1823453;77;21150;-64
2021/03/18 04:48:59;;;;;;;6.37;5.20;;;;;;;11.78;47.57;98988.76;1834499;77;21409;-63
2021/03/18 04:51:27;;;;;;;8.28;6.00;;;;;;;11.77;47.58;98996.44;1792154;79;22276;-64
2021/03/18 04:53:55;;;;;;;6.53;5.42;;;;;;;11.78;47.63;98995.41;1760184;80;21617;-64
2021/03/18 04:56:22;;;;;;;10.70;6.08;;;;;;;11.77;47.65;98998.59;1752266;80;21588;-62
2021/03/18 04:58:51;;;;;;;7.78;6.00;;;;;;;11.77;47.65;98997.25;1770431;80;21130;-67
2021/03/18 05:01:19;;;;;;;9.35;4.85;;;;;;;11.78;47.70;98994.08;1768217;79;21584;-63
2021/03/18 05:03:47;;;;;;;7.17;5.55;;;;;;;11.77;47.69;99001.77;1777852;79;21373;-63
2021/03/18 05:06:17;;;;;;;7.67;5.78;;;;;;;11.78;47.73;98999.40;1772764;80;21658;-64
2021/03/18 05:08:45;;;;;;;6.75;5.95;;;;;;;11.79;47.79;98997.07;1796594;79;21167;-63
2021/03/18 05:11:13;;;;;;;11.43;8.15;;;;;;;11.79;47.79;99003.72;1803172;79;22073;-64
2021/03/18 05:13:40;;;;;;;8.65;7.75;;;;;;;11.78;47.83;99000.73;1730337;79;21142;-64
2021/03/18 05:16:08;;;;;;;12.03;8.95;;;;;;;11.80;47.85;99000.03;1783336;78;21387;-63
2021/03/18 05:18:37;;;;;;;12.88;8.53;;;;;;;11.80;47.87;99007.52;1789956;79;21187;-62
2021/03/18 05:21:07;;;;;;;10.70;9.23;;;;;;;11.81;47.87;99001.69;1808597;79;21626;-63
2021/03/18 05:23:35;;;;;;;10.50;9.18;;;;;;;11.82;47.91;99011.33;1806779;79;21156;-63
2021/03/18 05:26:02;;;;;;;10.75;9.23;;;;;;;11.82;47.93;99012.66;1787323;79;21158;-63
2021/03/18 05:28:30;;;;;;;10.68;8.65;;;;;;;11.82;47.95;99010.00;1791240;79;21349;-62
2021/03/18 05:30:57;;;;;;;12.75;8.93;;;;;;;11.83;47.95;99012.14;1790462;79;21111;-63
2021/03/18 05:33:25;;;;;;;10.75;8.58;;;;;;;11.83;47.96;99014.29;1795035;79;21151;-63
2021/03/18 05:35:52;;;;;;;10.82;8.30;;;;;;;11.84;47.99;99017.77;1784645;79;21172;-62
2021/03/18 05:38:22;;;;;;;9.48;7.90;;;;;;;11.84;47.96;99018.61;1779229;79;21138;-63
2021/03/18 05:40:54;;;;;;;12.13;8.80;;;;;;;11.85;47.97;99022.09;1776541;79;22290;-62
2021/03/18 05:43:23;;;;;;;11.10;7.93;;;;;;;11.85;47.98;99025.56;1814238;79;21131;-63
2021/03/18 05:45:51;;;;;;;9.70;8.53;;;;;;;11.86;47.98;99032.55;1800481;79;21163;-63
2021/03/18 05:48:20;;;;;;;10.88;8.28;;;;;;;11.85;47.99;99028.22;1809100;78;21164;-64
2021/03/18 05:50:48;;;;;;;12.80;8.23;;;;;;;11.86;48.01;99025.89;1806259;79;21180;-63
2021/03/18 05:53:17;;;;;;;10.82;8.33;;;;;;;11.87;47.99;99030.70;1784694;79;22238;-64
2021/03/18 05:55:47;;;;;;;9.53;7.45;;;;;;;11.88;47.96;99029.17;1775209;79;21214;-64
2021/03/18 05:58:14;;;;;;;10.45;7.58;;;;;;;11.90;47.93;99025.00;1786851;79;21252;-63
2021/03/18 06:00:42;;;;;;;8.60;7.47;;;;;;;11.90;47.91;99033.83;1810925;79;21186;-63
2021/03/18 06:03:10;;;;;;;10.58;7.28;;;;;;;11.90;47.91;99035.16;1804695;79;21127;-62
2021/03/18 06:05:39;;;;;;;9.15;7.40;;;;;;;11.91;47.89;99046.10;1811911;78;21587;-63
2021/03/18 06:08:09;;;;;;;8.65;7.45;;;;;;;11.92;47.87;99049.61;1821518;77;21186;-64
2021/03/18 06:10:36;;;;;;;12.93;7.90;;;;;;;11.92;47.87;99056.27;1821690;77;21155;-64
2021/03/18 06:13:04;;;;;;;9.55;6.53;;;;;;;11.93;47.86;99060.04;1823265;77;21179;-62
2021/03/18 06:15:31;;;;;;;8.38;7.20;;;;;;;11.93;47.86;99052.05;1829837;77;21156;-64
2021/03/18 06:18:00;;;;;;;9.58;7.25;;;;;;;11.94;47.83;99060.89;1821786;77;21356;-63
2021/03/18 06:20:30;;;;;;;10.18;7.40;;;;;;;11.94;47.83;99052.38;1819233;77;21121;-64
2021/03/18 06:22:59;;;;;;;11.63;7.47;;;;;;;11.95;47.84;99054.02;1838931;77;21158;-63
2021/03/18 06:25:35;;;;;;;14.73;7.47;;;;;;;11.96;47.82;99066.84;1843289;77;21599;-63
2021/03/18 06:28:18;;;;;;;12.88;8.45;;;;;;;11.97;47.85;99058.63;1773147;80;21082;-65
2021/03/18 06:31:05;;;;;;;14.30;7.60;;;;;;;11.97;47.85;99057.30;1837193;77;21352;-62
2021/03/18 06:33:49;;;;;;;9.30;7.28;;;;;;;11.99;47.84;99065.95;1828552;77;21163;-63
2021/03/18 06:36:32;;;;;;;9.55;6.92;;;;;;;11.99;47.83;99061.11;1824367;77;21174;-63
2021/03/18 06:39:14;;;;;;;12.07;7.67;;;;;;;11.99;47.82;99061.95;1754691;80;21120;-68
2021/03/18 06:41:45;;;;;;;8.70;7.55;;;;;;;12.00;47.84;99062.25;1840521;77;21091;-63
2021/03/18 06:44:26;;;;;;;9.95;7.42;;;;;;;12.01;47.87;99064.39;1768624;80;21366;-64
2021/03/18 06:47:07;;;;;;;13.53;9.10;;;;;;;12.02;47.85;99060.73;1837888;77;21572;-64
2021/03/18 06:49:35;;;;;;;9.78;7.95;;;;;;;12.05;47.85;99067.50;1821770;77;21140;-63
2021/03/18 06:52:06;;;;;;;12.75;7.15;;;;;;;12.05;47.87;99060.84;1842438;77;21192;-63
2021/03/18 06:54:37;;;;;;;11.22;7.95;;;;;;;12.06;47.87;99060.66;1820952;77;21100;-63
2021/03/18 06:57:05;;;;;;;12.60;8.13;;;;;;;12.09;47.85;99056.77;1842898;77;21194;-64
2021/03/18 06:59:38;;;;;;;12.37;8.63;;;;;;;12.11;47.83;99060.91;1841264;77;21131;-64
2021/03/18 07:02:09;;;;;;;11.25;8.90;;;;;;;12.14;47.81;99063.67;1776633;80;21188;-64
2021/03/18 07:04:47;;;;;;;11.22;8.15;;;;;;;12.16;47.75;99062.45;1831796;77;21166;-64
2021/03/18 07:07:16;;;;;;;12.10;8.45;;;;;;;12.18;47.76;99063.08;1778895;80;21181;-64
2021/03/18 07:09:45;;;;;;;12.55;8.75;;;;;;;12.20;47.73;99062.38;1827044;77;22256;-62
2021/03/18 07:12:15;;;;;;;11.93;8.28;;;;;;;12.23;47.71;99063.00;1803046;79;21184;-65
2021/03/18 07:14:47;;;;;;;12.82;8.15;;;;;;;12.26;47.65;99070.09;1825438;77;21166;-65
2021/03/18 07:17:29;;;;;;;13.38;8.75;;;;;;;12.28;47.64;99071.23;1835726;77;21185;-63
2021/03/18 07:20:19;;;;;;;9.78;7.72;;;;;;;12.31;47.62;99074.85;1823845;77;21155;-65
2021/03/18 07:22:49;;;;;;;11.60;8.10;;;;;;;12.32;47.58;99069.34;1844616;77;21181;-64
2021/03/18 07:25:19;;;;;;;11.45;7.92;;;;;;;12.35;47.59;99071.59;1778438;80;21228;-61
2021/03/18 07:27:50;;;;;;;9.73;8.18;;;;;;;12.37;47.56;99065.55;1834065;77;21116;-63
2021/03/18 07:30:29;;;;;;;12.40;8.68;;;;;;;12.42;47.53;99066.80;1830889;77;21650;-63
2021/03/18 07:32:58;;;;;;;13.88;8.08;;;;;;;12.45;47.47;99065.91;1832357;77;21560;-65
2021/03/18 07:35:27;;;;;;;10.35;7.85;;;;;;;12.48;47.45;99056.20;1827217;77;21325;-63
2021/03/18 07:37:55;;;;;;;11.97;8.05;;;;;;;12.50;47.42;99064.81;1837679;77;21151;-65
2021/03/18 07:40:23;;;;;;;10.48;7.30;;;;;;;12.55;47.36;99108.17;1826936;77;21155;-65
2021/03/18 07:42:51;;;;;;;10.93;7.65;;;;;;;12.57;47.38;99106.98;1839587;77;21147;-65
2021/03/18 07:45:20;;;;;;;10.30;7.60;;;;;;;12.60;47.45;99107.09;1778747;80;21184;-66
2021/03/18 07:47:48;;;;;;;10.05;7.90;;;;;;;12.62;47.54;99114.38;1845075;76;21318;-67
2021/03/18 07:50:33;;;;;;;11.55;8.13;;;;;;;12.64;47.57;99108.85;1843001;77;21163;-68
2021/03/18 07:53:00;;;;;;;9.03;7.42;;;;;;;12.65;47.59;99108.66;1776925;79;21188;-70
2021/03/18 07:55:31;;;;;;;9.43;6.90;;;;;;;12.66;47.62;99106.30;1838968;77;21166;-65
2021/03/18 07:57:58;;;;;;;8.18;6.60;;;;;;;12.68;47.65;99110.91;1809246;78;21169;-67
2021/03/18 08:00:26;;;;;;;11.50;8.23;;;;;;;12.70;47.65;99112.87;1808282;77;21185;-62
2021/03/18 08:03:11;;;;;;;10.55;7.72;;;;;;;12.73;47.68;99108.49;1829016;77;21096;-66
2021/03/18 08:05:39;;;;;;;10.15;6.95;;;;;;;12.75;47.70;99110.45;1731552;79;21183;-64
2021/03/18 08:08:07;;;;;;;8.88;6.90;;;;;;;12.77;47.68;99104.41;1833570;77;21178;-65
2021/03/18 08:13:33;;;;;;;9.08;6.50;;;;;;;12.89;47.72;99111.84;1809873;79;28147;-66
2021/03/18 08:16:01;;;;;;;8.30;6.22;;;;;;;12.86;47.69;99113.05;1789173;79;21174;-67
2021/03/18 08:18:36;;;;;;;7.17;6.30;;;;;;;12.89;47.63;99109.99;1780008;80;21351;-65
2021/03/18 08:21:06;;;;;;;9.95;7.22;;;;;;;12.90;47.69;99106.81;1780838;79;21634;-67
2021/03/18 08:23:37;;;;;;;10.75;7.60;;;;;;;12.93;47.71;99110.42;1780241;79;21127;-65
2021/03/18 08:26:14;;;;;;;6.80;6.05;;;;;;;12.95;47.68;99109.19;1790221;78;21639;-68
2021/03/18 08:28:59;;;;;;;7.92;6.40;;;;;;;12.98;47.66;99108.80;1809255;78;21189;-69
2021/03/18 08:31:51;;;;;;;8.23;6.42;;;;;;;12.93;47.67;99098.42;1794258;79;21190;-67
2021/03/18 08:34:20;;;;;;;9.05;6.05;;;;;;;13.03;47.72;99110.05;1811202;78;21211;-69
2021/03/18 08:36:57;;;;;;;8.90;6.42;;;;;;;13.08;47.77;99106.28;1779557;78;21158;-67
2021/03/18 08:39:45;;;;;;;8.95;6.45;;;;;;;13.10;47.75;99111.72;1791001;79;21106;-68
2021/03/18 08:42:35;;;;;;;7.72;5.83;;;;;;;13.14;47.74;99107.63;1774324;80;21599;-65
2021/03/18 08:45:20;;;;;;;6.50;5.70;;;;;;;13.19;47.76;99109.68;1802969;78;21175;-68
2021/03/18 08:47:52;;;;;;;8.13;5.60;;;;;;;13.24;47.77;99104.58;1779227;80;21172;-68
2021/03/18 08:50:30;;;;;;;10.15;6.53;;;;;;;13.29;47.73;99116.81;1813009;78;21143;-68
2021/03/18 08:52:58;;;;;;;7.70;6.22;;;;;;;13.34;47.74;99117.56;1768258;80;21485;-67
2021/03/18 08:55:47;;;;;;;7.42;5.55;;;;;;;13.40;47.73;99116.75;1789378;78;21163;-67
2021/03/18 08:58:14;;;;;;;7.40;6.00;;;;;;;13.45;47.71;99123.65;1775384;80;22287;-68
2021/03/18 09:00:43;;;;;;;8.25;5.42;;;;;;;13.49;47.69;99115.55;1775722;80;21130;-67
2021/03/18 09:04:01;;;;;;;7.22;6.00;;;;;;;13.54;47.68;99119.77;1773079;80;21127;-68
2021/03/18 09:06:48;;;;;;;8.20;5.83;;;;;;;13.59;47.64;99117.00;1783723;80;21190;-66
2021/03/18 09:09:29;;;;;;;7.90;6.25;;;;;;;13.60;47.70;99118.14;1753622;80;21205;-66
2021/03/18 09:12:03;;;;;;;6.90;5.75;;;;;;;13.65;47.73;99119.67;1776396;78;21206;-67
2021/03/18 09:14:42;;;;;;;7.40;5.55;;;;;;;13.70;47.68;99122.56;1764442;80;21159;-71
2021/03/18 09:17:24;;;;;;;8.25;5.45;;;;;;;13.73;47.66;99122.17;1736723;80;21140;-70
2021/03/18 09:20:05;;;;;;;8.35;5.90;;;;;;;13.78;47.69;99118.88;1743770;80;21181;-68
2021/03/18 09:22:43;;;;;;;6.47;5.15;;;;;;;13.83;47.63;99121.77;1723848;80;21327;-65
2021/03/18 09:25:22;;;;;;;7.33;5.47;;;;;;;13.87;47.60;99123.00;1781495;80;22286;-70
2021/03/18 09:28:02;;;;;;;6.28;5.65;;;;;;;13.91;47.58;99120.22;1766145;80;21130;-69
2021/03/18 09:30:41;;;;;;;6.53;4.70;;;;;;;13.96;47.55;99121.77;1755182;80;21333;-66
2021/03/18 09:33:29;;;;;;;7.22;4.90;;;;;;;14.01;47.50;99121.67;1789110;80;21273;-67
2021/03/18 09:36:21;;;;;;;6.42;4.95;;;;;;;14.04;47.44;99118.57;1753091;80;21461;-67
2021/03/18 09:39:23;;;;;;;7.05;4.80;;;;;;;14.08;47.40;99123.80;1732877;80;21439;-68
2021/03/18 09:42:01;;;;;;;7.08;5.15;;;;;;;14.09;47.40;99124.94;1729991;81;21185;-68
2021/03/18 09:44:34;;;;;;;6.80;5.37;;;;;;;14.11;47.38;99123.41;1740156;81;21091;-69
2021/03/18 09:47:09;;;;;;;5.50;4.75;;;;;;;14.12;47.36;99127.73;1779549;78;21570;-67
2021/03/18 09:49:50;;;;;;;6.30;4.80;;;;;;;14.15;47.30;99123.30;1769756;78;21155;-66
2021/03/18 09:52:31;;;;;;;6.47;4.92;;;;;;;14.16;47.31;99118.27;1771000;80;22348;-63
2021/03/18 09:55:11;;;;;;;7.95;5.28;;;;;;;14.16;47.34;99120.42;1787973;80;21217;-63
2021/03/18 09:57:52;;;;;;;6.20;4.75;;;;;;;14.23;47.34;99123.59;1807217;77;28381;-66
2021/03/18 10:00:26;;;;;;;5.08;4.53;;;;;;;14.19;47.24;99126.38;1781048;78;21171;-65
2021/03/18 10:03:11;;;;;;;5.87;4.58;;;;;;;14.19;47.25;99131.20;1775200;79;21195;-67
2021/03/18 10:05:50;;;;;;;5.15;4.47;;;;;;;14.19;47.32;99127.72;1810244;77;21217;-68
2021/03/18 10:08:33;;;;;;;5.35;4.33;;;;;;;14.18;47.38;99131.40;1795524;77;21602;-68
2021/03/18 10:11:15;;;;;;;5.50;4.53;;;;;;;14.18;47.46;99132.73;1766535;78;21196;-68
2021/03/18 10:13:51;;;;;;;7.17;4.78;;;;;;;14.15;47.47;99131.31;1751521;79;22479;-65
2021/03/18 10:16:34;;;;;;;4.65;4.15;;;;;;;14.16;47.43;99134.30;1795365;78;21384;-66
2021/03/18 10:19:07;;;;;;;7.37;5.25;;;;;;;14.15;47.55;99132.64;1785556;78;21118;-66
2021/03/18 10:21:50;;;;;;;6.67;4.80;;;;;;;14.15;47.48;99132.64;1781395;78;21028;-68
2021/03/18 10:24:18;;;;;;;5.30;4.28;;;;;;;14.14;47.44;99134.50;1754566;78;21199;-66
2021/03/18 10:26:52;;;;;;;5.15;3.90;;;;;;;14.15;47.42;99135.31;1757875;78;21119;-66
2021/03/18 10:29:40;;;;;;;5.27;4.07;;;;;;;14.14;47.33;99131.83;1777204;78;21166;-67
2021/03/18 10:32:18;;;;;;;9.55;5.67;;;;;;;14.14;47.30;99130.50;1789447;78;21213;-66
2021/03/18 10:35:01;;;;;;;5.58;4.22;;;;;;;14.14;47.31;99133.69;1769280;78;21178;-69
2021/03/18 10:37:41;;;;;;;5.03;4.53;;;;;;;14.14;47.28;99139.03;1783499;78;21210;-65
2021/03/18 10:40:24;;;;;;;5.95;4.70;;;;;;;14.13;47.21;99140.86;1781364;78;21628;-66
2021/03/18 10:43:06;;;;;;;6.03;4.28;;;;;;;14.13;47.16;99139.52;1792331;78;21400;-65
2021/03/18 10:45:47;;;;;;;5.35;4.12;;;;;;;14.13;47.17;99144.05;1798022;78;21165;-65
2021/03/18 10:48:36;;;;;;;4.55;4.12;;;;;;;14.12;47.12;99144.58;1799911;77;21342;-66
2021/03/18 10:51:16;;;;;;;6.53;4.67;;;;;;;14.12;47.10;99145.91;1757912;79;21207;-65
2021/03/18 10:53:56;;;;;;;5.53;4.95;;;;;;;14.12;47.10;99146.43;1799749;77;21135;-65
2021/03/18 10:56:31;;;;;;;5.97;4.25;;;;;;;14.11;47.10;99148.25;1808465;77;21597;-64
2021/03/18 10:59:18;;;;;;;4.45;3.90;;;;;;;14.11;47.03;99152.78;1825503;77;21627;-65
2021/03/18 11:02:06;;;;;;;5.28;4.35;;;;;;;14.10;47.04;99147.12;1837536;76;21174;-66
2021/03/18 11:04:57;;;;;;;5.40;4.28;;;;;;;14.09;46.98;99150.31;1823145;76;21539;-66
2021/03/18 11:07:31;;;;;;;5.47;4.53;;;;;;;14.08;46.99;99149.17;1803738;77;21182;-65
2021/03/18 11:10:18;;;;;;;5.67;4.25;;;;;;;14.07;47.02;99148.88;1823886;77;21198;-66
2021/03/18 11:13:11;;;;;;;4.87;4.12;;;;;;;14.04;47.02;99143.94;1805766;77;21186;-65
2021/03/18 11:16:09;;;;;;;4.55;3.92;;;;;;;14.02;47.02;99140.13;1836756;77;21147;-64
2021/03/18 11:21:48;;;;;;;6.42;4.30;;;;;;;14.00;47.05;99136.84;1820930;76;28252;-65
2021/03/18 11:24:32;;;;;;;5.03;4.08;;;;;;;13.92;47.13;99143.73;1822590;76;21147;-64
2021/03/18 11:27:16;;;;;;;4.72;3.98;;;;;;;13.91;47.17;99144.25;1794970;77;21388;-65
2021/03/18 11:29:54;;;;;;;4.62;3.98;;;;;;;13.89;47.16;99143.64;1826930;77;21039;-64
2021/03/18 11:32:37;;;;;;;6.08;4.40;;;;;;;13.92;47.23;99135.20;1764480;79;28352;-64
2021/03/18 11:35:16;;;;;;;4.75;4.30;;;;;;;13.89;47.22;99140.16;1734294;82;21096;-66
2021/03/18 11:37:51;;;;;;;5.35;3.95;;;;;;;13.89;47.25;99138.82;1694093;82;21372;-63
2021/03/18 11:40:27;;;;;;;5.42;4.40;;;;;;;13.88;47.26;99135.83;1752812;80;21195;-68
2021/03/18 11:43:05;;;;;;;4.85;3.80;;;;;;;13.87;47.25;99141.69;1738158;81;21205;-66
2021/03/18 11:45:37;;;;;;;4.17;3.77;;;;;;;13.88;47.25;99143.84;1746527;80;21730;-65
2021/03/18 11:48:20;;;;;;;4.85;4.20;;;;;;;13.87;47.29;99140.84;1744746;79;21119;-65
2021/03/18 11:50:51;;;;;;;4.87;4.37;;;;;;;13.87;47.30;99143.02;1743897;81;21352;-67
2021/03/18 11:53:28;;;;;;;4.60;4.20;;;;;;;13.87;47.32;99143.52;1784140;79;21173;-64
2021/03/18 11:56:02;;;;;;;5.60;4.00;;;;;;;13.87;47.33;99144.84;1774692;79;21178;-66
2021/03/18 11:58:36;;;;;;;5.47;4.25;;;;;;;13.85;47.33;99143.73;1767813;79;21165;-65
2021/03/18 12:01:05;;;;;;;6.12;4.50;;;;;;;13.85;47.38;99148.23;1695851;82;21201;-66
2021/03/18 12:03:37;;;;;;;6.05;4.45;;;;;;;13.85;47.38;99148.23;1730451;81;21825;-66
2021/03/18 12:06:16;;;;;;;4.33;3.92;;;;;;;13.85;47.37;99143.73;1745878;81;21150;-66